createdAt,value
2023-03-21T00:01:30.623Z,11.88
2023-03-21T00:03:58.176Z,11.77
2023-03-21T00:06:25.744Z,11.91
2023-03-21T00:08:53.485Z,11.83
2023-03-21T00:11:21.613Z,12.50
2023-03-21T00:13:50.348Z,12.27
2023-03-21T00:16:29.234Z,12.82
2023-03-21T00:18:58.687Z,12.61
2023-03-21T00:22:03.590Z,12.89
2023-03-21T00:24:19.709Z,12.79
2023-03-21T00:26:47.117Z,12.75
2023-03-21T00:29:16.012Z,12.35
2023-03-21T00:31:43.426Z,12.76
2023-03-21T00:34:14.079Z,12.93
2023-03-21T00:36:41.668Z,12.54
2023-03-21T00:39:09.521Z,12.87
2023-03-21T00:41:42.854Z,12.95
2023-03-21T00:44:13.583Z,13.06
2023-03-21T00:46:51.676Z,13.01
2023-03-21T00:49:24.736Z,12.95
2023-03-21T00:51:53.241Z,13.14
2023-03-21T00:54:20.758Z,13.03
2023-03-21T00:56:48.159Z,12.90
2023-03-21T00:59:16.598Z,13.07
2023-03-21T01:01:46.782Z,12.95
2023-03-21T01:04:16.525Z,12.90
2023-03-21T01:06:45.059Z,13.04
2023-03-21T01:09:15.112Z,12.92
2023-03-21T01:11:42.891Z,12.69
2023-03-21T01:14:21.875Z,12.69
2023-03-21T01:16:51.230Z,12.34
2023-03-21T01:19:50.648Z,12.45
2023-03-21T01:22:07.479Z,12.83
2023-03-21T01:24:37.715Z,12.71
2023-03-21T01:27:05.948Z,12.80
2023-03-21T01:29:33.352Z,12.86
2023-03-21T01:32:02.074Z,12.77
2023-03-21T01:34:29.931Z,12.58
2023-03-21T01:36:57.404Z,12.67
2023-03-21T01:39:24.837Z,12.60
2023-03-21T01:41:52.254Z,12.50
2023-03-21T01:44:20.297Z,12.64
2023-03-21T01:49:41.589Z,12.46
2023-03-21T01:52:20.950Z,12.73
2023-03-21T01:54:56.943Z,12.45
2023-03-21T01:57:40.389Z,12.47
2023-03-21T02:00:13.033Z,12.57
2023-03-21T02:02:52.137Z,12.66
2023-03-21T02:05:28.285Z,12.56
2023-03-21T02:07:55.815Z,12.74
2023-03-21T02:10:23.331Z,12.80
2023-03-21T02:12:51.176Z,12.76
2023-03-21T02:15:18.749Z,12.56
2023-03-21T02:17:53.328Z,12.55
2023-03-21T02:20:36.054Z,12.55
2023-03-21T02:23:24.522Z,12.52
2023-03-21T02:26:19.114Z,11.99
2023-03-21T02:28:48.938Z,12.14
2023-03-21T02:31:28.333Z,12.49
2023-03-21T02:34:36.206Z,12.57
2023-03-21T02:37:09.762Z,12.57
2023-03-21T02:39:48.807Z,12.38
2023-03-21T02:42:21.813Z,12.28
2023-03-21T02:44:57.036Z,12.52
2023-03-21T02:47:28.983Z,12.35
2023-03-21T02:49:59.816Z,12.16
2023-03-21T02:52:39.144Z,12.26
2023-03-21T02:55:13.726Z,12.27
2023-03-21T02:57:44.004Z,12.46
2023-03-21T03:00:17.852Z,12.43
2023-03-21T03:02:47.520Z,12.40
2023-03-21T03:05:21.605Z,12.36
2023-03-21T03:08:00.989Z,12.49
2023-03-21T03:10:40.305Z,12.37
2023-03-21T03:13:16.971Z,12.14
2023-03-21T03:15:57.769Z,12.29
2023-03-21T03:18:33.543Z,12.12
2023-03-21T03:21:09.498Z,12.17
2023-03-21T03:23:45.945Z,12.19
2023-03-21T03:26:17.758Z,12.00
2023-03-21T03:28:50.190Z,11.94
2023-03-21T03:31:25.919Z,12.04
2023-03-21T03:33:57.137Z,12.18
2023-03-21T03:36:32.602Z,12.22
2023-03-21T03:39:05.351Z,12.08
2023-03-21T03:42:03.050Z,12.26
2023-03-21T03:44:24.210Z,12.19
2023-03-21T03:46:57.211Z,12.23
2023-03-21T03:49:27.953Z,12.25
2023-03-21T03:52:00.317Z,12.20
2023-03-21T03:54:33.197Z,12.20
2023-03-21T03:57:01.263Z,12.07
2023-03-21T03:59:28.710Z,12.18
2023-03-21T04:01:56.172Z,12.34
2023-03-21T04:04:28.621Z,12.27
2023-03-21T04:06:58.011Z,12.22
2023-03-21T04:09:40.942Z,12.28
2023-03-21T04:12:12.798Z,12.33
2023-03-21T04:14:45.581Z,12.26
2023-03-21T04:17:14.662Z,12.08
2023-03-21T04:19:42.468Z,12.14
2023-03-21T04:22:09.941Z,12.22
2023-03-21T04:24:37.501Z,11.99
2023-03-21T04:27:05.789Z,11.82
2023-03-21T04:29:34.564Z,12.01
2023-03-21T04:32:02.346Z,12.16
2023-03-21T04:34:29.930Z,12.24
2023-03-21T04:36:57.874Z,12.02
2023-03-21T04:39:25.474Z,11.65
2023-03-21T04:41:52.971Z,11.93
2023-03-21T04:44:20.891Z,12.02
2023-03-21T04:46:50.300Z,11.92
2023-03-21T04:49:18.466Z,11.95
2023-03-21T04:51:46.035Z,12.17
2023-03-21T04:56:41.102Z,12.00
2023-03-21T04:59:12.687Z,11.85
2023-03-21T05:01:41.068Z,11.97
2023-03-21T05:04:10.799Z,11.99
2023-03-21T05:06:38.276Z,12.14
2023-03-21T05:09:07.085Z,12.04
2023-03-21T05:11:37.623Z,11.87
2023-03-21T05:14:05.712Z,12.23
2023-03-21T05:16:34.750Z,12.01
2023-03-21T05:19:04.966Z,11.89
2023-03-21T05:21:41.861Z,12.18
2023-03-21T05:24:12.143Z,12.13
2023-03-21T05:26:40.111Z,12.30
2023-03-21T05:29:08.241Z,11.99
2023-03-21T05:31:36.240Z,11.99
2023-03-21T05:34:04.120Z,12.07
2023-03-21T05:36:33.985Z,11.96
2023-03-21T05:39:02.847Z,12.09
2023-03-21T05:41:30.510Z,12.24
2023-03-21T05:43:57.951Z,12.13
2023-03-21T05:46:25.381Z,12.24
2023-03-21T05:48:53.002Z,11.28
2023-03-21T05:51:20.542Z,12.00
2023-03-21T05:53:48.487Z,11.92
2023-03-21T05:56:17.330Z,11.87
2023-03-21T05:58:44.804Z,11.99
2023-03-21T06:01:12.529Z,12.10
2023-03-21T06:03:39.965Z,12.13
2023-03-21T06:06:08.143Z,12.05
2023-03-21T06:08:35.737Z,12.33
2023-03-21T06:11:03.280Z,12.06
2023-03-21T06:13:32.882Z,12.21
2023-03-21T06:16:00.384Z,12.13
2023-03-21T06:18:28.072Z,12.04
2023-03-21T06:20:56.629Z,11.54
2023-03-21T06:23:24.061Z,12.07
2023-03-21T06:25:51.576Z,12.24
2023-03-21T06:28:19.069Z,11.81
2023-03-21T06:30:47.777Z,12.04
2023-03-21T06:33:15.358Z,11.67
2023-03-21T06:35:42.774Z,12.27
2023-03-21T06:38:10.334Z,12.15
2023-03-21T06:40:38.931Z,12.26
2023-03-21T06:43:06.706Z,11.93
2023-03-21T06:45:34.114Z,11.94
2023-03-21T06:48:02.922Z,11.96
2023-03-21T06:50:30.417Z,11.72
2023-03-21T06:52:59.334Z,11.80
2023-03-21T06:55:28.787Z,12.08
2023-03-21T06:57:57.334Z,12.51
2023-03-21T07:00:25.304Z,12.42
2023-03-21T07:02:53.815Z,12.53
2023-03-21T07:05:22.664Z,11.84
2023-03-21T07:07:50.109Z,12.40
2023-03-21T07:10:17.785Z,12.26
2023-03-21T07:12:45.316Z,12.52
2023-03-21T07:15:12.937Z,12.67
2023-03-21T07:17:40.361Z,12.71
2023-03-21T07:20:08.674Z,12.73
2023-03-21T07:22:37.451Z,12.58
2023-03-21T07:25:06.290Z,12.68
2023-03-21T07:27:33.769Z,12.02
2023-03-21T07:30:01.229Z,12.55
2023-03-21T07:32:29.986Z,11.85
2023-03-21T07:34:57.551Z,12.43
2023-03-21T07:37:24.960Z,12.57
2023-03-21T07:39:53.781Z,12.74
2023-03-21T07:42:21.312Z,12.84
2023-03-21T07:44:48.748Z,12.57
2023-03-21T07:47:16.159Z,11.91
2023-03-21T07:49:43.559Z,12.64
2023-03-21T07:52:11.026Z,12.82
2023-03-21T07:54:38.463Z,12.86
2023-03-21T07:57:07.335Z,12.96
2023-03-21T07:59:34.758Z,12.80
2023-03-21T08:02:02.214Z,12.83
2023-03-21T08:04:30.138Z,12.31
2023-03-21T08:06:58.064Z,12.68
2023-03-21T08:09:25.462Z,12.76
2023-03-21T08:11:52.857Z,12.99
2023-03-21T08:14:21.592Z,12.54
2023-03-21T08:16:49.019Z,12.66
2023-03-21T08:19:18.671Z,12.91
2023-03-21T08:21:46.082Z,12.71
2023-03-21T08:24:13.461Z,13.08
2023-03-21T08:26:41.060Z,12.92
2023-03-21T08:29:08.896Z,13.03
2023-03-21T08:31:37.655Z,12.99
2023-03-21T08:34:05.176Z,13.06
2023-03-21T08:36:32.730Z,12.89
2023-03-21T08:39:05.633Z,12.34
2023-03-21T08:41:33.566Z,12.86
2023-03-21T08:44:00.972Z,13.25
2023-03-21T08:46:28.683Z,13.08
2023-03-21T08:48:57.551Z,13.20
2023-03-21T08:51:24.954Z,13.33
2023-03-21T08:53:52.558Z,13.36
2023-03-21T08:56:19.999Z,13.40
2023-03-21T08:58:47.408Z,13.21
2023-03-21T09:01:15.884Z,13.39
2023-03-21T09:03:43.832Z,13.48
2023-03-21T09:06:14.282Z,13.37
2023-03-21T09:08:43.331Z,13.28
2023-03-21T09:11:11.641Z,13.40
2023-03-21T09:13:39.138Z,13.50
2023-03-21T09:16:07.367Z,13.56
2023-03-21T09:18:47.094Z,13.60
2023-03-21T09:21:18.163Z,13.63
2023-03-21T09:23:46.142Z,13.60
2023-03-21T09:26:13.968Z,13.71
2023-03-21T09:28:41.662Z,13.52
2023-03-21T09:31:11.295Z,13.67
2023-03-21T09:33:40.210Z,13.42
2023-03-21T09:36:11.751Z,13.43
2023-03-21T09:38:40.978Z,13.51
2023-03-21T09:41:18.573Z,13.62
2023-03-21T09:43:59.949Z,13.64
2023-03-21T09:46:35.761Z,13.87
2023-03-21T09:49:07.937Z,13.90
2023-03-21T09:51:38.215Z,13.17
2023-03-21T09:54:14.270Z,13.61
2023-03-21T09:56:43.930Z,13.78
2023-03-21T09:59:20.884Z,13.72
2023-03-21T10:01:49.917Z,13.42
2023-03-21T10:04:18.853Z,13.74
2023-03-21T10:06:53.714Z,14.02
2023-03-21T10:09:24.445Z,13.81
2023-03-21T10:11:57.258Z,14.10
2023-03-21T10:14:31.169Z,14.10
2023-03-21T10:17:01.760Z,14.11
2023-03-21T10:19:29.792Z,14.32
2023-03-21T10:22:03.083Z,14.30
2023-03-21T10:24:34.684Z,14.10
2023-03-21T10:27:04.769Z,13.88
2023-03-21T10:29:37.166Z,14.26
2023-03-21T10:32:04.975Z,14.38
2023-03-21T10:34:37.456Z,14.45
2023-03-21T10:37:06.830Z,14.61
2023-03-21T10:39:40.154Z,14.53
2023-03-21T10:42:15.774Z,14.07
2023-03-21T10:44:48.829Z,14.74
2023-03-21T10:47:21.580Z,14.74
2023-03-21T10:52:39.347Z,14.92
2023-03-21T10:55:19.512Z,14.66
2023-03-21T10:57:47.964Z,14.76
2023-03-21T11:00:21.726Z,14.64
2023-03-21T11:02:51.385Z,14.65
2023-03-21T11:05:23.073Z,14.43
2023-03-21T11:07:58.761Z,14.34
2023-03-21T11:10:33.659Z,14.68
2023-03-21T11:13:06.872Z,14.85
2023-03-21T11:15:42.057Z,14.88
2023-03-21T11:18:18.626Z,15.03
2023-03-21T11:20:51.734Z,15.02
2023-03-21T11:23:20.892Z,15.14
2023-03-21T11:25:51.636Z,14.93
2023-03-21T11:28:22.082Z,15.08
2023-03-21T11:30:55.525Z,15.24
2023-03-21T11:33:27.039Z,14.41
2023-03-21T11:36:02.901Z,14.93
2023-03-21T11:38:34.006Z,15.09
2023-03-21T11:41:04.257Z,15.11
2023-03-21T11:43:35.957Z,15.21
2023-03-21T11:46:08.918Z,15.40
2023-03-21T11:48:40.804Z,15.19
2023-03-21T11:51:18.179Z,15.70
2023-03-21T11:53:49.987Z,15.91
2023-03-21T11:56:26.497Z,15.88
2023-03-21T11:59:17.300Z,16.07
2023-03-21T12:01:57.179Z,16.14
2023-03-21T12:04:40.525Z,16.12
2023-03-21T12:07:19.887Z,16.08
2023-03-21T12:09:54.490Z,16.10
2023-03-21T12:12:39.364Z,16.16
2023-03-21T12:15:18.278Z,16.10
2023-03-21T12:17:55.607Z,16.16
2023-03-21T12:20:40.284Z,16.02
2023-03-21T12:23:19.314Z,16.15
2023-03-21T12:25:54.138Z,16.14
2023-03-21T12:28:34.771Z,16.28
2023-03-21T12:31:12.131Z,16.23
2023-03-21T12:33:54.244Z,16.19
2023-03-21T12:36:38.636Z,16.22
2023-03-21T12:39:21.705Z,16.31
2023-03-21T12:42:04.322Z,16.20
2023-03-21T12:44:39.005Z,16.16
2023-03-21T12:47:11.350Z,15.83
2023-03-21T12:49:43.915Z,15.96
2023-03-21T12:52:15.575Z,15.96
2023-03-21T12:54:49.507Z,16.02
2023-03-21T12:57:21.224Z,15.62
2023-03-21T12:59:56.152Z,15.91
2023-03-21T13:02:30.543Z,16.14
2023-03-21T13:05:05.982Z,15.91
2023-03-21T13:07:38.352Z,15.89
2023-03-21T13:10:14.725Z,15.28
2023-03-21T13:12:49.191Z,15.54
2023-03-21T13:15:54.774Z,15.84
2023-03-21T13:18:32.289Z,15.60
2023-03-21T13:21:03.702Z,15.79
2023-03-21T13:23:36.703Z,15.85
2023-03-21T13:26:08.774Z,15.79
2023-03-21T13:28:37.932Z,15.63
2023-03-21T13:31:23.325Z,15.59
2023-03-21T13:33:52.607Z,15.72
2023-03-21T13:36:28.819Z,15.31
2023-03-21T13:39:01.891Z,15.63
2023-03-21T13:41:32.999Z,15.86
2023-03-21T13:44:10.815Z,15.35
2023-03-21T13:46:53.322Z,15.52
2023-03-21T13:49:29.348Z,15.42
2023-03-21T13:51:58.469Z,15.48
2023-03-21T13:54:44.460Z,15.90
2023-03-21T13:57:23.370Z,15.94
2023-03-21T13:59:50.870Z,15.96
2023-03-21T14:02:33.635Z,15.87
2023-03-21T14:05:06.055Z,15.61
2023-03-21T14:07:36.662Z,15.84
2023-03-21T14:10:09.469Z,15.87
2023-03-21T14:12:41.167Z,16.00
2023-03-21T14:15:17.178Z,16.07
2023-03-21T14:17:53.736Z,15.76
2023-03-21T14:20:24.178Z,15.88
2023-03-21T14:22:51.841Z,16.02
2023-03-21T14:25:21.522Z,15.97
2023-03-21T14:27:52.582Z,16.08
2023-03-21T14:30:23.990Z,15.99
2023-03-21T14:32:55.826Z,15.79
2023-03-21T14:35:23.706Z,16.12
2023-03-21T14:37:52.642Z,16.16
2023-03-21T14:40:25.286Z,15.97
2023-03-21T14:42:53.704Z,16.29
2023-03-21T14:45:23.155Z,16.40
2023-03-21T14:48:00.013Z,16.50
2023-03-21T14:50:35.818Z,16.05
2023-03-21T14:53:03.608Z,16.19
2023-03-21T14:55:31.948Z,16.29
2023-03-21T14:57:59.596Z,16.39
2023-03-21T15:00:30.333Z,16.05
2023-03-21T15:03:01.286Z,16.10
2023-03-21T15:05:33.388Z,16.09
2023-03-21T15:08:03.593Z,15.27
2023-03-21T15:10:32.575Z,15.94
2023-03-21T15:13:02.545Z,16.05
2023-03-21T15:15:32.706Z,16.02
2023-03-21T15:18:07.231Z,16.12
2023-03-21T15:20:38.523Z,16.22
2023-03-21T15:23:10.678Z,16.20
2023-03-21T15:25:39.490Z,15.69
2023-03-21T15:28:07.444Z,16.12
2023-03-21T15:30:36.059Z,16.19
2023-03-21T15:33:10.576Z,16.29
2023-03-21T15:35:40.953Z,16.06
2023-03-21T15:38:21.771Z,16.28
2023-03-21T15:40:49.290Z,15.83
2023-03-21T15:43:18.837Z,16.13
2023-03-21T15:45:50.873Z,16.05
2023-03-21T15:48:23.175Z,16.09
2023-03-21T15:50:57.425Z,16.06
2023-03-21T15:53:25.933Z,16.05
2023-03-21T15:55:57.509Z,16.12
2023-03-21T15:58:27.747Z,16.07
2023-03-21T16:00:57.570Z,16.10
2023-03-21T16:03:29.176Z,15.11
2023-03-21T16:06:05.044Z,15.82
2023-03-21T16:08:35.815Z,15.90
2023-03-21T16:11:19.150Z,15.54
2023-03-21T16:13:46.901Z,15.93
2023-03-21T16:16:17.851Z,15.21
2023-03-21T16:18:46.867Z,15.61
2023-03-21T16:21:16.317Z,15.44
2023-03-21T16:23:44.001Z,15.61
2023-03-21T16:26:12.982Z,15.69
2023-03-21T16:28:40.554Z,15.41
2023-03-21T16:31:12.729Z,15.91
2023-03-21T16:33:40.318Z,15.95
2023-03-21T16:36:13.866Z,15.89
2023-03-21T16:38:41.349Z,15.95
2023-03-21T16:41:11.257Z,15.92
2023-03-21T16:43:42.784Z,15.89
2023-03-21T16:46:14.984Z,14.96
2023-03-21T16:48:43.017Z,15.38
2023-03-21T16:51:21.646Z,15.84
2023-03-21T16:53:51.409Z,15.70
2023-03-21T16:56:21.520Z,15.93
2023-03-21T16:58:49.312Z,15.77
2023-03-21T17:01:19.672Z,15.91
2023-03-21T17:03:48.291Z,15.98
2023-03-21T17:06:18.669Z,15.84
2023-03-21T17:08:46.860Z,15.63
2023-03-21T17:11:17.501Z,15.92
2023-03-21T17:13:45.436Z,15.54
2023-03-21T17:16:14.028Z,15.75
2023-03-21T17:18:41.554Z,15.79
2023-03-21T17:21:14.511Z,15.82
2023-03-21T17:23:43.975Z,15.85
2023-03-21T17:26:14.030Z,15.80
2023-03-21T17:28:42.059Z,15.72
2023-03-21T17:31:14.019Z,15.59
2023-03-21T17:33:41.581Z,15.87
2023-03-21T17:36:15.037Z,15.60
2023-03-21T17:38:45.804Z,15.65
2023-03-21T17:41:14.616Z,15.28
2023-03-21T17:43:42.119Z,15.55
2023-03-21T17:46:14.034Z,15.61
2023-03-21T17:48:41.611Z,15.79
2023-03-21T17:51:12.758Z,15.81
2023-03-21T17:53:40.302Z,15.80
2023-03-21T17:56:13.543Z,15.85
2023-03-21T17:58:40.989Z,15.78
2023-03-21T18:01:08.577Z,15.40
2023-03-21T18:03:36.031Z,15.22
2023-03-21T18:06:03.914Z,15.14
2023-03-21T18:08:31.372Z,15.59
2023-03-21T18:10:59.016Z,15.18
2023-03-21T18:13:27.796Z,15.52
2023-03-21T18:15:56.369Z,15.75
2023-03-21T18:18:23.958Z,15.71
2023-03-21T18:20:53.664Z,15.79
2023-03-21T18:23:32.235Z,15.63
2023-03-21T18:26:00.332Z,15.66
2023-03-21T18:28:29.082Z,15.68
2023-03-21T18:31:17.983Z,15.51
2023-03-21T18:33:45.244Z,15.59
2023-03-21T18:36:15.330Z,15.68
2023-03-21T18:38:43.124Z,15.70
2023-03-21T18:41:11.441Z,15.53
2023-03-21T18:44:05.274Z,15.68
2023-03-21T18:46:27.852Z,15.59
2023-03-21T18:48:55.628Z,15.63
2023-03-21T18:51:23.080Z,15.72
2023-03-21T18:53:50.563Z,15.59
2023-03-21T18:57:05.888Z,15.62
2023-03-21T18:59:07.410Z,15.61
2023-03-21T19:01:35.811Z,15.54
2023-03-21T19:04:20.734Z,15.61
2023-03-21T19:06:51.066Z,15.57
2023-03-21T19:09:18.726Z,15.53
2023-03-21T19:11:46.673Z,15.50
2023-03-21T19:14:17.481Z,15.55
2023-03-21T19:17:26.666Z,15.56
2023-03-21T19:19:33.756Z,15.51
2023-03-21T19:22:01.644Z,15.17
2023-03-21T19:24:29.362Z,15.28
2023-03-21T19:26:56.929Z,15.39
2023-03-21T19:29:26.151Z,15.44
2023-03-21T19:31:53.844Z,15.39
2023-03-21T19:34:21.680Z,15.45
2023-03-21T19:36:51.912Z,15.37
2023-03-21T19:39:22.230Z,15.29
2023-03-21T19:41:50.176Z,15.21
2023-03-21T19:44:19.081Z,15.00
2023-03-21T19:46:48.875Z,15.24
2023-03-21T19:49:20.138Z,14.60
2023-03-21T19:51:48.166Z,14.89
2023-03-21T19:54:17.857Z,14.87
2023-03-21T19:56:47.649Z,15.03
2023-03-21T19:59:15.998Z,15.09
2023-03-21T20:01:43.586Z,15.07
2023-03-21T20:04:12.747Z,14.72
2023-03-21T20:06:40.485Z,14.81
2023-03-21T20:11:57.878Z,14.65
2023-03-21T20:14:25.826Z,14.64
2023-03-21T20:16:55.243Z,14.69
2023-03-21T20:19:25.460Z,14.81
2023-03-21T20:21:58.772Z,14.95
2023-03-21T20:24:28.308Z,14.99
2023-03-21T20:26:57.373Z,14.98
2023-03-21T20:32:16.139Z,14.68
2023-03-21T20:34:46.237Z,14.84
2023-03-21T20:37:15.671Z,14.13
2023-03-21T20:39:43.611Z,13.75
2023-03-21T20:42:11.652Z,13.61
2023-03-21T20:44:58.468Z,14.24
2023-03-21T20:47:27.879Z,13.16
2023-03-21T20:50:01.847Z,14.08
2023-03-21T20:55:28.280Z,14.16
2023-03-21T20:57:55.840Z,14.24
2023-03-21T21:00:26.559Z,14.48
2023-03-21T21:02:54.382Z,13.26
2023-03-21T21:05:28.310Z,14.22
2023-03-21T21:07:57.117Z,14.51
2023-03-21T21:10:25.932Z,13.65
2023-03-21T21:12:53.768Z,14.10
2023-03-21T21:15:22.043Z,14.34
2023-03-21T21:18:08.531Z,14.87
2023-03-21T21:20:40.658Z,14.92
2023-03-21T21:23:13.740Z,14.95
2023-03-21T21:25:44.593Z,14.50
2023-03-21T21:28:14.482Z,14.57
2023-03-21T21:30:42.821Z,14.56
2023-03-21T21:33:10.537Z,13.98
2023-03-21T21:35:39.507Z,14.45
2023-03-21T21:38:07.124Z,15.41
2023-03-21T21:40:34.561Z,14.83
2023-03-21T21:43:03.651Z,14.88
2023-03-21T21:45:31.689Z,14.34
2023-03-21T21:47:59.134Z,14.12
2023-03-21T21:50:26.573Z,14.39
2023-03-21T21:52:55.352Z,14.58
2023-03-21T21:55:23.357Z,14.39
2023-03-21T21:57:51.243Z,14.44
2023-03-21T22:00:20.563Z,14.49
2023-03-21T22:02:48.265Z,14.47
2023-03-21T22:05:16.260Z,14.47
2023-03-21T22:07:44.192Z,14.46
2023-03-21T22:10:13.379Z,13.57
2023-03-21T22:12:41.169Z,14.07
2023-03-21T22:15:10.707Z,14.07
2023-03-21T22:17:39.070Z,13.97
2023-03-21T22:20:08.777Z,13.81
2023-03-21T22:22:37.312Z,14.21
2023-03-21T22:25:06.744Z,14.33
2023-03-21T22:27:35.711Z,14.32
2023-03-21T22:30:04.872Z,14.19
2023-03-21T22:32:32.387Z,14.18
2023-03-21T22:35:02.256Z,14.27
2023-03-21T22:37:29.882Z,14.39
2023-03-21T22:39:57.284Z,14.38
2023-03-21T22:42:25.324Z,14.05
2023-03-21T22:44:54.084Z,14.21
2023-03-21T22:47:21.594Z,14.01
2023-03-21T22:49:49.061Z,14.14
2023-03-21T22:52:16.519Z,13.83
2023-03-21T22:54:44.096Z,14.22
2023-03-21T22:57:13.587Z,14.07
2023-03-21T22:59:41.171Z,13.16
2023-03-21T23:02:10.382Z,13.71
2023-03-21T23:04:38.202Z,13.97
2023-03-21T23:07:05.859Z,14.13
2023-03-21T23:09:33.560Z,12.86
2023-03-21T23:12:01.164Z,13.78
2023-03-21T23:14:28.849Z,13.64
2023-03-21T23:17:00.144Z,13.22
2023-03-21T23:19:29.614Z,13.87
2023-03-21T23:21:57.780Z,13.77
2023-03-21T23:24:25.731Z,13.81
2023-03-21T23:26:53.418Z,14.03
2023-03-21T23:29:20.955Z,14.21
2023-03-21T23:31:48.430Z,14.32
2023-03-21T23:34:16.286Z,14.29
2023-03-21T23:36:45.209Z,14.18
2023-03-21T23:39:12.635Z,14.23
2023-03-21T23:41:42.649Z,14.25
2023-03-21T23:44:10.113Z,14.18
2023-03-21T23:46:37.683Z,14.21
2023-03-21T23:49:05.255Z,14.03
2023-03-21T23:51:32.727Z,13.50
2023-03-21T23:54:01.613Z,13.89
2023-03-21T23:56:29.342Z,13.42
2023-03-21T23:58:58.185Z,13.54
